sensor_id;sensor_type;location;lat;lon;timestamp;pressure;altitude;pressure_sealevel;temperature;humidity
70445;BME280;57902;49.638;11.070;2022-08-19T00:01:34;97654.56;;;20.42;84.19
70445;BME280;57902;49.638;11.070;2022-08-19T00:04:07;97660.03;;;20.39;84.01
70445;BME280;57902;49.638;11.070;2022-08-19T00:06:35;97656.44;;;20.40;84.25
70445;BME280;57902;49.638;11.070;2022-08-19T00:09:06;97656.94;;;20.34;85.36
70445;BME280;57902;49.638;11.070;2022-08-19T00:11:33;97663.97;;;20.34;84.89
70445;BME280;57902;49.638;11.070;2022-08-19T00:14:03;97661.94;;;20.37;84.83
70445;BME280;57902;49.638;11.070;2022-08-19T00:16:30;97658.25;;;20.40;84.67
70445;BME280;57902;49.638;11.070;2022-08-19T00:18:56;97661.44;;;20.43;84.86
70445;BME280;57902;49.638;11.070;2022-08-19T00:21:24;97657.88;;;20.33;85.54
70445;BME280;57902;49.638;11.070;2022-08-19T00:23:53;97654.09;;;20.26;84.97
70445;BME280;57902;49.638;11.070;2022-08-19T00:26:20;97651.72;;;20.23;86.31
70445;BME280;57902;49.638;11.070;2022-08-19T00:28:46;97648.66;;;20.18;86.06
70445;BME280;57902;49.638;11.070;2022-08-19T00:31:13;97642.69;;;20.16;87.11
70445;BME280;57902;49.638;11.070;2022-08-19T00:33:39;97648.91;;;20.15;86.77
70445;BME280;57902;49.638;11.070;2022-08-19T00:36:08;97649.00;;;20.13;86.05
70445;BME280;57902;49.638;11.070;2022-08-19T00:38:37;97653.41;;;20.13;87.26
70445;BME280;57902;49.638;11.070;2022-08-19T00:41:05;97650.53;;;20.16;87.13
70445;BME280;57902;49.638;11.070;2022-08-19T00:43:32;97661.72;;;20.18;86.25
70445;BME280;57902;49.638;11.070;2022-08-19T00:45:59;97660.31;;;20.14;86.98
70445;BME280;57902;49.638;11.070;2022-08-19T00:48:26;97669.69;;;20.16;85.67
70445;BME280;57902;49.638;11.070;2022-08-19T00:50:53;97666.34;;;20.14;86.95
70445;BME280;57902;49.638;11.070;2022-08-19T00:53:24;97676.00;;;20.14;87.08
70445;BME280;57902;49.638;11.070;2022-08-19T00:55:55;97676.00;;;20.14;86.91
70445;BME280;57902;49.638;11.070;2022-08-19T00:58:27;97675.75;;;20.17;85.52
70445;BME280;57902;49.638;11.070;2022-08-19T01:00:58;97680.28;;;20.15;87.53
70445;BME280;57902;49.638;11.070;2022-08-19T01:03:25;97681.81;;;20.17;86.78
70445;BME280;57902;49.638;11.070;2022-08-19T01:05:52;97687.16;;;20.16;86.54
70445;BME280;57902;49.638;11.070;2022-08-19T01:08:21;97682.41;;;20.21;86.34
70445;BME280;57902;49.638;11.070;2022-08-19T01:10:55;97681.94;;;20.27;86.27
70445;BME280;57902;49.638;11.070;2022-08-19T01:13:26;97678.38;;;20.28;86.97
70445;BME280;57902;49.638;11.070;2022-08-19T01:16:10;97683.34;;;20.31;85.70
70445;BME280;57902;49.638;11.070;2022-08-19T01:18:40;97683.59;;;20.28;86.63
70445;BME280;57902;49.638;11.070;2022-08-19T01:21:12;97681.94;;;20.27;86.81
70445;BME280;57902;49.638;11.070;2022-08-19T01:23:43;97683.34;;;20.31;86.20
70445;BME280;57902;49.638;11.070;2022-08-19T01:26:14;97691.09;;;20.33;86.17
70445;BME280;57902;49.638;11.070;2022-08-19T01:28:42;97692.88;;;20.32;86.35
70445;BME280;57902;49.638;11.070;2022-08-19T01:31:10;97690.28;;;20.32;86.20
70445;BME280;57902;49.638;11.070;2022-08-19T01:33:54;97692.03;;;20.32;85.83
70445;BME280;57902;49.638;11.070;2022-08-19T01:36:41;97702.38;;;20.33;85.29
70445;BME280;57902;49.638;11.070;2022-08-19T01:39:11;97700.50;;;20.35;85.13
70445;BME280;57902;49.638;11.070;2022-08-19T01:41:38;97696.56;;;20.41;84.15
70445;BME280;57902;49.638;11.070;2022-08-19T01:44:07;97694.06;;;20.39;84.85
70445;BME280;57902;49.638;11.070;2022-08-19T01:46:45;97704.16;;;20.44;83.99
70445;BME280;57902;49.638;11.070;2022-08-19T01:49:14;97713.22;;;20.40;84.12
70445;BME280;57902;49.638;11.070;2022-08-19T01:51:40;97709.41;;;20.33;85.52
70445;BME280;57902;49.638;11.070;2022-08-19T01:54:27;97706.56;;;20.36;83.98
70445;BME280;57902;49.638;11.070;2022-08-19T01:57:10;97707.84;;;20.30;84.79
70445;BME280;57902;49.638;11.070;2022-08-19T02:00:19;97722.75;;;20.30;84.22
70445;BME280;57902;49.638;11.070;2022-08-19T02:02:48;97731.66;;;20.27;84.43
70445;BME280;57902;49.638;11.070;2022-08-19T02:05:15;97735.81;;;20.18;86.10
70445;BME280;57902;49.638;11.070;2022-08-19T02:07:44;97735.00;;;20.18;86.07
70445;BME280;57902;49.638;11.070;2022-08-19T02:10:14;97730.59;;;20.18;85.43
70445;BME280;57902;49.638;11.070;2022-08-19T02:12:42;97729.88;;;20.16;85.91
70445;BME280;57902;49.638;11.070;2022-08-19T02:15:09;97722.88;;;20.17;85.54
70445;BME280;57902;49.638;11.070;2022-08-19T02:17:36;97715.38;;;20.12;86.35
70445;BME280;57902;49.638;11.070;2022-08-19T02:20:04;97712.88;;;20.10;86.17
70445;BME280;57902;49.638;11.070;2022-08-19T02:22:32;97712.88;;;20.10;86.10
70445;BME280;57902;49.638;11.070;2022-08-19T02:24:59;97724.28;;;20.09;86.43
70445;BME280;57902;49.638;11.070;2022-08-19T02:27:26;97728.47;;;20.12;86.49
70445;BME280;57902;49.638;11.070;2022-08-19T02:29:53;97732.63;;;20.15;85.85
70445;BME280;57902;49.638;11.070;2022-08-19T02:32:19;97748.69;;;20.10;86.77
70445;BME280;57902;49.638;11.070;2022-08-19T02:34:47;97748.06;;;20.06;87.68
70445;BME280;57902;49.638;11.070;2022-08-19T02:37:14;97755.81;;;20.08;87.60
70445;BME280;57902;49.638;11.070;2022-08-19T02:40:00;97754.75;;;20.10;87.82
70445;BME280;57902;49.638;11.070;2022-08-19T02:42:28;97763.28;;;20.13;87.30
70445;BME280;57902;49.638;11.070;2022-08-19T02:44:55;97761.16;;;20.18;87.39
70445;BME280;57902;49.638;11.070;2022-08-19T02:47:22;97765.56;;;20.17;87.14
70445;BME280;57902;49.638;11.070;2022-08-19T02:49:48;97763.66;;;20.19;86.47
70445;BME280;57902;49.638;11.070;2022-08-19T02:52:16;97763.66;;;20.19;85.93
70445;BME280;57902;49.638;11.070;2022-08-19T02:54:43;97778.06;;;20.14;86.81
70445;BME280;57902;49.638;11.070;2022-08-19T02:57:10;97776.50;;;20.11;86.97
70445;BME280;57902;49.638;11.070;2022-08-19T02:59:36;97783.41;;;20.12;87.25
70445;BME280;57902;49.638;11.070;2022-08-19T03:02:03;97783.66;;;20.09;87.15
70445;BME280;57902;49.638;11.070;2022-08-19T03:04:29;97783.03;;;20.05;87.23
70445;BME280;57902;49.638;11.070;2022-08-19T03:06:56;97779.72;;;20.03;87.22
70445;BME280;57902;49.638;11.070;2022-08-19T03:09:36;97774.94;;;20.08;86.78
70445;BME280;57902;49.638;11.070;2022-08-19T03:12:04;97776.16;;;20.04;87.09
70445;BME280;57902;49.638;11.070;2022-08-19T03:14:32;97784.00;;;20.04;87.25
70445;BME280;57902;49.638;11.070;2022-08-19T03:16:59;97777.56;;;20.08;86.72
70445;BME280;57902;49.638;11.070;2022-08-19T03:19:25;97760.91;;;20.09;86.51
70445;BME280;57902;49.638;11.070;2022-08-19T03:21:52;97752.25;;;20.09;87.03
70445;BME280;57902;49.638;11.070;2022-08-19T03:24:19;97749.28;;;20.14;86.02
70445;BME280;57902;49.638;11.070;2022-08-19T03:26:49;97741.53;;;20.12;87.01
70445;BME280;57902;49.638;11.070;2022-08-19T03:29:17;97748.56;;;20.12;86.30
70445;BME280;57902;49.638;11.070;2022-08-19T03:31:55;97749.63;;;20.09;86.47
70445;BME280;57902;49.638;11.070;2022-08-19T03:34:28;97746.06;;;20.10;86.32
70445;BME280;57902;49.638;11.070;2022-08-19T03:36:57;97739.88;;;20.11;85.71
70445;BME280;57902;49.638;11.070;2022-08-19T03:39:25;97727.63;;;20.12;85.88
70445;BME280;57902;49.638;11.070;2022-08-19T03:41:53;97720.47;;;20.02;87.06
70445;BME280;57902;49.638;11.070;2022-08-19T03:44:42;97718.84;;;20.01;87.32
70445;BME280;57902;49.638;11.070;2022-08-19T03:47:10;97710.00;;;20.02;87.26
70445;BME280;57902;49.638;11.070;2022-08-19T03:49:42;97707.88;;;20.07;86.98
70445;BME280;57902;49.638;11.070;2022-08-19T03:52:09;97717.38;;;20.08;86.88
70445;BME280;57902;49.638;11.070;2022-08-19T03:54:36;97712.88;;;20.10;86.10
70445;BME280;57902;49.638;11.070;2022-08-19T03:57:04;97711.69;;;20.15;86.03
70445;BME280;57902;49.638;11.070;2022-08-19T03:59:34;97718.13;;;20.10;86.76
70445;BME280;57902;49.638;11.070;2022-08-19T04:02:05;97716.69;;;20.06;87.34
70445;BME280;57902;49.638;11.070;2022-08-19T04:04:36;97714.31;;;20.03;87.82
70445;BME280;57902;49.638;11.070;2022-08-19T04:07:04;97720.00;;;20.08;87.43
70445;BME280;57902;49.638;11.070;2022-08-19T04:09:30;97708.72;;;20.08;87.37
70445;BME280;57902;49.638;11.070;2022-08-19T04:11:57;97714.56;;;20.12;86.66
70445;BME280;57902;49.638;11.070;2022-08-19T04:14:26;97712.75;;;20.12;87.15
70445;BME280;57902;49.638;11.070;2022-08-19T04:16:56;97703.00;;;20.14;86.64
70445;BME280;57902;49.638;11.070;2022-08-19T04:19:22;97704.91;;;20.12;86.45
70445;BME280;57902;49.638;11.070;2022-08-19T04:21:51;97709.31;;;20.12;86.28
70445;BME280;57902;49.638;11.070;2022-08-19T04:24:20;97716.44;;;20.09;86.04
70445;BME280;57902;49.638;11.070;2022-08-19T04:26:47;97730.94;;;20.02;87.09
70445;BME280;57902;49.638;11.070;2022-08-19T04:29:19;97733.81;;;19.99;87.32
70445;BME280;57902;49.638;11.070;2022-08-19T04:31:48;97736.19;;;20.02;86.55
70445;BME280;57902;49.638;11.070;2022-08-19T04:34:17;97740.09;;;20.08;86.14
70445;BME280;57902;49.638;11.070;2022-08-19T04:36:44;97744.28;;;20.10;85.82
70445;BME280;57902;49.638;11.070;2022-08-19T04:39:17;97751.41;;;20.08;86.46
70445;BME280;57902;49.638;11.070;2022-08-19T04:41:45;97755.44;;;20.13;86.01
70445;BME280;57902;49.638;11.070;2022-08-19T04:44:34;97757.38;;;20.10;86.32
70445;BME280;57902;49.638;11.070;2022-08-19T04:47:02;97774.00;;;20.09;86.09
70445;BME280;57902;49.638;11.070;2022-08-19T04:49:36;97787.22;;;20.08;86.05
70445;BME280;57902;49.638;11.070;2022-08-19T04:52:03;97788.25;;;20.05;86.84
70445;BME280;57902;49.638;11.070;2022-08-19T04:54:29;97795.28;;;20.05;86.35
70445;BME280;57902;49.638;11.070;2022-08-19T04:57:06;97792.69;;;20.05;86.26
70445;BME280;57902;49.638;11.070;2022-08-19T04:59:34;97806.59;;;20.05;86.27
70445;BME280;57902;49.638;11.070;2022-08-19T05:02:02;97808.25;;;20.06;86.73
70445;BME280;57902;49.638;11.070;2022-08-19T05:04:28;97808.13;;;20.08;86.53
70445;BME280;57902;49.638;11.070;2022-08-19T05:06:57;97806.25;;;20.10;85.93
70445;BME280;57902;49.638;11.070;2022-08-19T05:09:27;97802.56;;;20.13;85.65
70445;BME280;57902;49.638;11.070;2022-08-19T05:12:14;97809.47;;;20.14;85.49
70445;BME280;57902;49.638;11.070;2022-08-19T05:14:40;97804.09;;;20.15;85.16
70445;BME280;57902;49.638;11.070;2022-08-19T05:17:07;97810.91;;;20.18;85.06
70445;BME280;57902;49.638;11.070;2022-08-19T05:19:52;97806.13;;;20.23;84.41
70445;BME280;57902;49.638;11.070;2022-08-19T05:22:38;97816.72;;;20.21;84.93
70445;BME280;57902;49.638;11.070;2022-08-19T05:25:10;97824.56;;;20.21;84.89
70445;BME280;57902;49.638;11.070;2022-08-19T05:27:40;97828.97;;;20.21;84.68
70445;BME280;57902;49.638;11.070;2022-08-19T05:30:08;97831.59;;;20.21;84.98
70445;BME280;57902;49.638;11.070;2022-08-19T05:32:35;97840.88;;;20.25;84.62
70445;BME280;57902;49.638;11.070;2022-08-19T05:35:03;97844.44;;;20.24;85.38
70445;BME280;57902;49.638;11.070;2022-08-19T05:37:30;97846.81;;;20.27;85.25
70445;BME280;57902;49.638;11.070;2022-08-19T05:39:56;97844.69;;;20.32;84.54
70445;BME280;57902;49.638;11.070;2022-08-19T05:42:23;97840.06;;;20.36;83.89
70445;BME280;57902;49.638;11.070;2022-08-19T05:44:50;97841.59;;;20.38;83.69
70445;BME280;57902;49.638;11.070;2022-08-19T05:47:17;97838.25;;;20.36;84.24
70445;BME280;57902;49.638;11.070;2022-08-19T05:49:46;97839.22;;;20.35;84.66
70445;BME280;57902;49.638;11.070;2022-08-19T05:52:14;97832.69;;;20.41;83.85
70445;BME280;57902;49.638;11.070;2022-08-19T05:54:50;97846.38;;;20.44;83.95
70445;BME280;57902;49.638;11.070;2022-08-19T05:57:20;97833.75;;;20.50;83.46
70445;BME280;57902;49.638;11.070;2022-08-19T05:59:46;97843.03;;;20.54;83.25
70445;BME280;57902;49.638;11.070;2022-08-19T06:02:18;97834.09;;;20.56;83.12
70445;BME280;57902;49.638;11.070;2022-08-19T06:04:45;97847.91;;;20.58;83.40
70445;BME280;57902;49.638;11.070;2022-08-19T06:07:12;97836.34;;;20.61;83.92
70445;BME280;57902;49.638;11.070;2022-08-19T06:09:39;97838.63;;;20.66;83.85
70445;BME280;57902;49.638;11.070;2022-08-19T06:16:39;97825.66;;;20.87;81.75
70445;BME280;57902;49.638;11.070;2022-08-19T06:19:10;97819.34;;;20.89;81.64
70445;BME280;57902;49.638;11.070;2022-08-19T06:21:38;97821.59;;;20.94;81.23
70445;BME280;57902;49.638;11.070;2022-08-19T06:24:09;97816.38;;;20.94;80.87
70445;BME280;57902;49.638;11.070;2022-08-19T06:26:38;97818.63;;;20.98;80.79
70445;BME280;57902;49.638;11.070;2022-08-19T06:29:06;97824.19;;;21.05;80.49
70445;BME280;57902;49.638;11.070;2022-08-19T06:31:34;97831.91;;;21.07;80.48
70445;BME280;57902;49.638;11.070;2022-08-19T06:34:03;97829.44;;;21.05;80.51
70445;BME280;57902;49.638;11.070;2022-08-19T06:36:36;97834.44;;;21.08;80.09
70445;BME280;57902;49.638;11.070;2022-08-19T06:39:09;97833.59;;;21.08;79.63
70445;BME280;57902;49.638;11.070;2022-08-19T06:41:39;97831.91;;;21.07;80.04
70445;BME280;57902;49.638;11.070;2022-08-19T06:44:17;97826.09;;;21.03;80.59
70445;BME280;57902;49.638;11.070;2022-08-19T06:46:45;97830.28;;;21.06;80.33
70445;BME280;57902;49.638;11.070;2022-08-19T06:49:21;97831.09;;;21.06;80.53
70445;BME280;57902;49.638;11.070;2022-08-19T06:51:48;97834.66;;;21.17;79.94
70445;BME280;57902;49.638;11.070;2022-08-19T06:54:18;97837.00;;;21.20;80.08
70445;BME280;57902;49.638;11.070;2022-08-19T06:56:46;97847.25;;;21.23;79.95
70445;BME280;57902;49.638;11.070;2022-08-19T06:59:15;97843.19;;;21.30;79.43
70445;BME280;57902;49.638;11.070;2022-08-19T07:01:54;97849.03;;;21.33;79.72
70445;BME280;57902;49.638;11.070;2022-08-19T07:04:24;97845.53;;;21.44;79.26
70445;BME280;57902;49.638;11.070;2022-08-19T07:07:04;97843.03;;;21.54;79.13
70445;BME280;57902;49.638;11.070;2022-08-19T07:09:47;97849.44;;;21.61;78.59
70445;BME280;57902;49.638;11.070;2022-08-19T07:12:28;97857.63;;;21.68;78.64
70445;BME280;57902;49.638;11.070;2022-08-19T07:14:56;97866.22;;;21.70;78.80
70445;BME280;57902;49.638;11.070;2022-08-19T07:17:24;97872.59;;;21.77;77.90
70445;BME280;57902;49.638;11.070;2022-08-19T07:19:51;97877.78;;;21.67;77.88
70445;BME280;57902;49.638;11.070;2022-08-19T07:22:20;97877.53;;;21.71;77.22
70445;BME280;57902;49.638;11.070;2022-08-19T07:24:50;97880.84;;;21.73;77.87
70445;BME280;57902;49.638;11.070;2022-08-19T07:27:17;97872.38;;;21.80;76.43
70445;BME280;57902;49.638;11.070;2022-08-19T07:29:50;97877.16;;;21.75;75.72
70445;BME280;57902;49.638;11.070;2022-08-19T07:32:23;97878.59;;;21.68;76.81
70445;BME280;57902;49.638;11.070;2022-08-19T07:34:53;97877.09;;;21.87;75.27
70445;BME280;57902;49.638;11.070;2022-08-19T07:37:19;97882.09;;;21.90;75.14
70445;BME280;57902;49.638;11.070;2022-08-19T07:39:46;97874.34;;;21.88;74.54
70445;BME280;57902;49.638;11.070;2022-08-19T07:42:13;97881.63;;;21.84;74.96
70445;BME280;57902;49.638;11.070;2022-08-19T07:44:41;97875.69;;;21.82;74.59
70445;BME280;57902;49.638;11.070;2022-08-19T07:47:15;97879.78;;;21.75;75.08
70445;BME280;57902;49.638;11.070;2022-08-19T07:50:05;97884.63;;;21.80;74.41
70445;BME280;57902;49.638;11.070;2022-08-19T07:52:33;97887.38;;;21.78;74.27
70445;BME280;57902;49.638;11.070;2022-08-19T07:55:00;97887.56;;;21.65;74.92
70445;BME280;57902;49.638;11.070;2022-08-19T07:57:29;97879.03;;;21.52;75.73
70445;BME280;57902;49.638;11.070;2022-08-19T07:59:56;97882.09;;;21.46;76.29
70445;BME280;57902;49.638;11.070;2022-08-19T08:02:23;97885.81;;;21.43;76.31
70445;BME280;57902;49.638;11.070;2022-08-19T08:04:49;97882.50;;;21.41;75.98
70445;BME280;57902;49.638;11.070;2022-08-19T08:07:54;97896.78;;;21.37;76.26
70445;BME280;57902;49.638;11.070;2022-08-19T08:10:39;97881.88;;;21.38;76.13
70445;BME280;57902;49.638;11.070;2022-08-19T08:13:07;97890.72;;;21.37;76.37
70445;BME280;57902;49.638;11.070;2022-08-19T08:15:37;97878.44;;;21.37;76.00
70445;BME280;57902;49.638;11.070;2022-08-19T08:18:08;97877.25;;;21.41;75.92
70445;BME280;57902;49.638;11.070;2022-08-19T08:20:35;97875.31;;;21.43;75.42
70445;BME280;57902;49.638;11.070;2022-08-19T08:23:02;97878.66;;;21.45;75.65
70445;BME280;57902;49.638;11.070;2022-08-19T08:25:46;97871.63;;;21.46;75.59
70445;BME280;57902;49.638;11.070;2022-08-19T08:28:15;97874.38;;;21.44;76.32
70445;BME280;57902;49.638;11.070;2022-08-19T08:30:43;97876.28;;;21.54;75.69
70445;BME280;57902;49.638;11.070;2022-08-19T08:33:13;97876.28;;;21.54;75.71
70445;BME280;57902;49.638;11.070;2022-08-19T08:35:45;97876.53;;;21.50;76.01
70445;BME280;57902;49.638;11.070;2022-08-19T08:38:12;97878.91;;;21.54;75.69
70445;BME280;57902;49.638;11.070;2022-08-19T08:40:45;97875.06;;;21.58;74.52
70445;BME280;57902;49.638;11.070;2022-08-19T08:43:22;97865.31;;;21.48;74.74
70445;BME280;57902;49.638;11.070;2022-08-19T08:46:15;97866.13;;;21.49;74.35
70445;BME280;57902;49.638;11.070;2022-08-19T08:51:42;97862.09;;;21.45;74.73
70445;BME280;57902;49.638;11.070;2022-08-19T08:54:14;97866.75;;;21.41;75.53
70445;BME280;57902;49.638;11.070;2022-08-19T08:56:44;97862.94;;;21.45;75.34
70445;BME280;57902;49.638;11.070;2022-08-19T09:01:43;97869.81;;;21.46;75.73
70445;BME280;57902;49.638;11.070;2022-08-19T09:04:11;97869.81;;;21.46;75.97
70445;BME280;57902;49.638;11.070;2022-08-19T09:06:51;97882.50;;;21.41;76.03
70445;BME280;57902;49.638;11.070;2022-08-19T09:09:34;97886.06;;;21.40;76.08
70445;BME280;57902;49.638;11.070;2022-08-19T09:12:21;97884.88;;;21.33;76.75
70445;BME280;57902;49.638;11.070;2022-08-19T09:15:02;97876.69;;;21.26;76.98
70445;BME280;57902;49.638;11.070;2022-08-19T09:17:31;97876.56;;;21.28;77.02
70445;BME280;57902;49.638;11.070;2022-08-19T09:20:20;97869.66;;;21.27;77.03
70445;BME280;57902;49.638;11.070;2022-08-19T09:22:47;97878.34;;;21.27;76.28
70445;BME280;57902;49.638;11.070;2022-08-19T09:25:18;97877.63;;;21.25;76.67
70445;BME280;57902;49.638;11.070;2022-08-19T09:27:54;97883.56;;;21.27;76.57
70445;BME280;57902;49.638;11.070;2022-08-19T09:30:34;97885.63;;;21.24;76.68
70445;BME280;57902;49.638;11.070;2022-08-19T09:33:01;97890.28;;;21.20;76.92
70445;BME280;57902;49.638;11.070;2022-08-19T09:35:29;97881.34;;;21.23;76.80
70445;BME280;57902;49.638;11.070;2022-08-19T09:37:58;97882.31;;;21.22;76.53
70445;BME280;57902;49.638;11.070;2022-08-19T09:40:27;97883.94;;;21.23;77.27
70445;BME280;57902;49.638;11.070;2022-08-19T09:42:55;97877.50;;;21.38;77.04
70445;BME280;57902;49.638;11.070;2022-08-19T09:45:23;97879.63;;;21.56;76.23
70445;BME280;57902;49.638;11.070;2022-08-19T09:47:52;97880.72;;;21.74;74.46
70445;BME280;57902;49.638;11.070;2022-08-19T09:50:21;97883.91;;;21.89;72.87
70445;BME280;57902;49.638;11.070;2022-08-19T09:52:47;97894.25;;;21.91;72.56
70445;BME280;57902;49.638;11.070;2022-08-19T09:55:23;97884.00;;;21.88;73.03
70445;BME280;57902;49.638;11.070;2022-08-19T09:58:00;97883.31;;;21.85;73.26
70445;BME280;57902;49.638;11.070;2022-08-19T10:00:26;97880.41;;;21.89;72.81
70445;BME280;57902;49.638;11.070;2022-08-19T10:02:53;97885.81;;;21.87;73.54
70445;BME280;57902;49.638;11.070;2022-08-19T10:05:19;97878.75;;;21.88;72.82
70445;BME280;57902;49.638;11.070;2022-08-19T10:08:08;97870.78;;;21.89;72.67
70445;BME280;57902;49.638;11.070;2022-08-19T10:10:41;97868.03;;;21.91;72.71
70445;BME280;57902;49.638;11.070;2022-08-19T10:13:14;97874.22;;;21.90;72.97
70445;BME280;57902;49.638;11.070;2022-08-19T10:15:41;97886.41;;;21.91;73.07
70445;BME280;57902;49.638;11.070;2022-08-19T10:18:14;97888.03;;;21.92;73.14
70445;BME280;57902;49.638;11.070;2022-08-19T10:20:45;97893.63;;;21.98;72.52
70445;BME280;57902;49.638;11.070;2022-08-19T10:23:18;97897.19;;;21.97;72.21
70445;BME280;57902;49.638;11.070;2022-08-19T10:25:45;97889.72;;;21.93;72.21
70445;BME280;57902;49.638;11.070;2022-08-19T10:28:13;97894.00;;;21.94;72.58
70445;BME280;57902;49.638;11.070;2022-08-19T10:30:40;97893.50;;;22.00;71.87
70445;BME280;57902;49.638;11.070;2022-08-19T10:33:08;97896.75;;;21.92;72.58
70445;BME280;57902;49.638;11.070;2022-08-19T10:35:36;97899.56;;;22.00;71.93
70445;BME280;57902;49.638;11.070;2022-08-19T10:38:22;97902.06;;;22.02;71.36
70445;BME280;57902;49.638;11.070;2022-08-19T10:40:57;97898.50;;;22.03;71.36
70445;BME280;57902;49.638;11.070;2022-08-19T10:43:24;97894.66;;;22.07;71.42
70445;BME280;57902;49.638;11.070;2022-08-19T10:45:52;97897.97;;;22.09;71.76
70445;BME280;57902;49.638;11.070;2022-08-19T10:48:21;97894.81;;;22.15;70.85
70445;BME280;57902;49.638;11.070;2022-08-19T10:50:48;97900.81;;;22.17;71.11
70445;BME280;57902;49.638;11.070;2022-08-19T10:53:33;97902.22;;;22.22;70.78
70445;BME280;57902;49.638;11.070;2022-08-19T10:56:01;97895.84;;;22.24;70.72
70445;BME280;57902;49.638;11.070;2022-08-19T10:58:46;97900.28;;;22.24;70.59
70445;BME280;57902;49.638;11.070;2022-08-19T11:01:13;97899.59;;;22.22;70.74
70445;BME280;57902;49.638;11.070;2022-08-19T11:03:39;97897.44;;;22.15;71.19
70445;BME280;57902;49.638;11.070;2022-08-19T11:06:08;97892.47;;;22.12;71.64
70445;BME280;57902;49.638;11.070;2022-08-19T11:08:36;97889.44;;;22.17;71.21
70445;BME280;57902;49.638;11.070;2022-08-19T11:11:05;97886.00;;;22.16;71.66
70445;BME280;57902;49.638;11.070;2022-08-19T11:13:35;97890.25;;;22.29;70.71
70445;BME280;57902;49.638;11.070;2022-08-19T11:16:23;97896.91;;;22.33;69.76
70445;BME280;57902;49.638;11.070;2022-08-19T11:18:56;97895.97;;;22.23;70.33
70445;BME280;57902;49.638;11.070;2022-08-19T11:23:56;97889.84;;;22.12;70.29
70445;BME280;57902;49.638;11.070;2022-08-19T11:26:24;97893.63;;;21.98;70.35
70445;BME280;57902;49.638;11.070;2022-08-19T11:28:51;97892.72;;;21.88;71.13
70445;BME280;57902;49.638;11.070;2022-08-19T11:31:23;97896.41;;;21.85;71.31
70445;BME280;57902;49.638;11.070;2022-08-19T11:33:56;97893.34;;;21.80;71.56
70445;BME280;57902;49.638;11.070;2022-08-19T11:36:23;97898.59;;;21.80;72.42
70445;BME280;57902;49.638;11.070;2022-08-19T11:38:50;97904.59;;;21.71;74.46
70445;BME280;57902;49.638;11.070;2022-08-19T11:41:18;97902.22;;;21.68;77.18
70445;BME280;57902;49.638;11.070;2022-08-19T11:43:46;97902.50;;;21.54;79.58
70445;BME280;57902;49.638;11.070;2022-08-19T11:46:14;97897.38;;;21.52;80.47
70445;BME280;57902;49.638;11.070;2022-08-19T11:48:42;97896.66;;;21.50;80.98
70445;BME280;57902;49.638;11.070;2022-08-19T11:51:11;97897.97;;;21.44;81.03
70445;BME280;57902;49.638;11.070;2022-08-19T11:53:39;97896.34;;;21.32;83.59
70445;BME280;57902;49.638;11.070;2022-08-19T11:56:07;97889.44;;;21.20;85.62
70445;BME280;57902;49.638;11.070;2022-08-19T11:58:34;97889.06;;;21.24;83.84
70445;BME280;57902;49.638;11.070;2022-08-19T12:01:01;97883.00;;;21.24;86.65
70445;BME280;57902;49.638;11.070;2022-08-19T12:03:27;97886.81;;;21.31;85.72
70445;BME280;57902;49.638;11.070;2022-08-19T12:05:54;97885.00;;;21.31;87.21
70445;BME280;57902;49.638;11.070;2022-08-19T12:08:20;97896.09;;;21.35;86.41
70445;BME280;57902;49.638;11.070;2022-08-19T12:10:47;97877.88;;;21.33;85.92
70445;BME280;57902;49.638;11.070;2022-08-19T12:13:14;97876.75;;;21.36;85.61
70445;BME280;57902;49.638;11.070;2022-08-19T12:15:46;97884.28;;;21.41;85.57
70445;BME280;57902;49.638;11.070;2022-08-19T12:18:14;97881.53;;;21.42;84.65
70445;BME280;57902;49.638;11.070;2022-08-19T12:20:42;97882.75;;;21.38;84.66
70445;BME280;57902;49.638;11.070;2022-08-19T12:23:09;97883.25;;;21.32;84.80
70445;BME280;57902;49.638;11.070;2022-08-19T12:25:44;97881.31;;;21.34;84.08
70445;BME280;57902;49.638;11.070;2022-08-19T12:28:16;97878.34;;;21.27;85.20
70445;BME280;57902;49.638;11.070;2022-08-19T12:30:43;97877.53;;;21.15;84.68
70445;BME280;57902;49.638;11.070;2022-08-19T12:33:09;97883.13;;;21.11;85.04
70445;BME280;57902;49.638;11.070;2022-08-19T12:35:40;97879.81;;;21.09;85.85
70445;BME280;57902;49.638;11.070;2022-08-19T12:38:11;97878.03;;;21.09;86.54
70445;BME280;57902;49.638;11.070;2022-08-19T12:40:37;97880.19;;;21.04;87.24
70445;BME280;57902;49.638;11.070;2022-08-19T12:43:07;97879.59;;;21.01;88.36
70445;BME280;57902;49.638;11.070;2022-08-19T12:45:34;97885.69;;;21.01;87.92
70445;BME280;57902;49.638;11.070;2022-08-19T12:48:02;97888.19;;;21.03;89.31
70445;BME280;57902;49.638;11.070;2022-08-19T12:50:49;97883.75;;;21.03;90.91
70445;BME280;57902;49.638;11.070;2022-08-19T12:53:15;97895.19;;;21.13;89.66
70445;BME280;57902;49.638;11.070;2022-08-19T12:55:42;97889.25;;;21.11;89.94
70445;BME280;57902;49.638;11.070;2022-08-19T12:58:12;97896.97;;;21.02;89.68
70445;BME280;57902;49.638;11.070;2022-08-19T13:00:39;97892.81;;;20.99;90.62
70445;BME280;57902;49.638;11.070;2022-08-19T13:03:06;97891.38;;;20.95;88.89
70445;BME280;57902;49.638;11.070;2022-08-19T13:05:32;97888.06;;;20.93;89.17
70445;BME280;57902;49.638;11.070;2022-08-19T13:08:02;97884.38;;;20.84;90.61
70445;BME280;57902;49.638;11.070;2022-08-19T13:10:32;97899.25;;;20.84;90.62
70445;BME280;57902;49.638;11.070;2022-08-19T13:13:06;97896.66;;;20.84;93.52
70445;BME280;57902;49.638;11.070;2022-08-19T13:15:35;97896.03;;;20.80;94.22
70445;BME280;57902;49.638;11.070;2022-08-19T13:18:02;97898.28;;;20.85;92.83
70445;BME280;57902;49.638;11.070;2022-08-19T13:20:29;97894.16;;;20.82;92.59